createdAt,value
2017-12-03T00:02:27.104Z,-0.85
2017-12-03T00:04:54.551Z,-0.77
2017-12-03T00:07:21.962Z,-0.75
2017-12-03T00:09:49.605Z,-0.73
2017-12-03T00:12:17.030Z,-0.68
2017-12-03T00:14:44.533Z,-0.65
2017-12-03T00:17:11.984Z,-0.76
2017-12-03T00:19:39.418Z,-0.83
2017-12-03T00:22:06.918Z,-0.86
2017-12-03T00:24:34.512Z,-0.80
2017-12-03T00:27:02.037Z,-0.79
2017-12-03T00:29:29.762Z,-0.83
2017-12-03T00:31:57.158Z,-0.94
2017-12-03T00:34:24.714Z,-0.94
2017-12-03T00:36:52.154Z,-0.93
2017-12-03T00:39:19.597Z,-0.92
2017-12-03T00:41:47.126Z,-0.88
2017-12-03T00:44:14.606Z,-1.01
2017-12-03T00:46:41.994Z,-0.99
2017-12-03T00:49:09.534Z,-0.91
2017-12-03T00:51:36.998Z,-0.84
2017-12-03T00:54:04.501Z,-0.89
2017-12-03T00:56:32.489Z,-0.96
2017-12-03T00:59:00.506Z,-0.87
2017-12-03T01:01:27.949Z,-0.92
2017-12-03T01:03:55.358Z,-0.98
2017-12-03T01:06:22.799Z,-0.99
2017-12-03T01:08:50.256Z,-0.94
2017-12-03T01:11:17.782Z,-0.85
2017-12-03T01:13:45.187Z,-0.84
2017-12-03T01:16:12.627Z,-0.93
2017-12-03T01:18:40.089Z,-0.87
2017-12-03T01:21:07.694Z,-0.95
2017-12-03T01:23:35.164Z,-0.97
2017-12-03T01:26:02.636Z,-0.83
2017-12-03T01:28:30.100Z,-0.80
2017-12-03T01:30:57.542Z,-0.83
2017-12-03T01:33:24.944Z,-0.91
2017-12-03T01:35:52.411Z,-0.90
2017-12-03T01:38:19.923Z,-0.81
2017-12-03T01:40:47.434Z,-0.77
2017-12-03T01:43:14.898Z,-0.76
2017-12-03T01:45:42.352Z,-0.82
2017-12-03T01:48:09.755Z,-0.63
2017-12-03T01:50:37.258Z,-0.68
2017-12-03T01:53:04.703Z,-0.82
2017-12-03T01:55:32.447Z,-0.96
2017-12-03T01:58:01.053Z,-0.98
2017-12-03T02:00:28.525Z,-0.81
2017-12-03T02:02:55.922Z,-0.78
2017-12-03T02:05:23.375Z,-0.64
2017-12-03T02:07:50.946Z,-0.70
2017-12-03T02:10:18.351Z,-0.76
2017-12-03T02:12:45.786Z,-0.71
2017-12-03T02:15:13.238Z,-0.67
2017-12-03T02:17:40.703Z,-0.72
2017-12-03T02:20:08.190Z,-0.73
2017-12-03T02:22:35.845Z,-0.75
2017-12-03T02:25:03.396Z,-0.69
2017-12-03T02:27:31.066Z,-0.82
2017-12-03T02:29:58.476Z,-0.75
2017-12-03T02:32:26.039Z,-0.83
2017-12-03T02:34:53.508Z,-0.69
2017-12-03T02:37:21.062Z,-0.72
2017-12-03T02:39:48.492Z,-0.84
2017-12-03T02:42:15.954Z,-0.80
2017-12-03T02:44:43.390Z,-0.81
2017-12-03T02:47:10.864Z,-0.71
2017-12-03T02:49:38.342Z,-0.71
2017-12-03T02:52:05.888Z,-0.79
2017-12-03T02:54:33.454Z,-0.64
2017-12-03T02:57:01.157Z,-0.69
2017-12-03T02:59:28.724Z,-0.73
2017-12-03T03:01:56.154Z,-0.59
2017-12-03T03:04:23.658Z,-0.68
2017-12-03T03:06:51.162Z,-0.64
2017-12-03T03:09:18.670Z,-0.71
2017-12-03T03:11:46.127Z,-0.72
2017-12-03T03:14:13.530Z,-0.73
2017-12-03T03:19:14.922Z,-0.71
2017-12-03T03:21:42.400Z,-0.81
2017-12-03T03:24:09.885Z,-0.79
2017-12-03T03:26:37.389Z,-0.66
2017-12-03T03:29:04.876Z,-0.70
2017-12-03T03:31:32.488Z,-0.72
2017-12-03T03:34:00.069Z,-0.79
2017-12-03T03:36:27.532Z,-0.90
2017-12-03T03:38:54.998Z,-0.87
2017-12-03T03:41:22.468Z,-0.87
2017-12-03T03:43:49.931Z,-0.84
2017-12-03T03:46:17.474Z,-0.87
2017-12-03T03:48:44.903Z,-0.79
2017-12-03T03:51:12.302Z,-0.90
2017-12-03T03:53:39.744Z,-0.85
2017-12-03T03:56:07.187Z,-0.83
2017-12-03T03:58:34.927Z,-0.98
2017-12-03T04:01:03.021Z,-0.94
2017-12-03T04:03:30.887Z,-0.92
2017-12-03T04:05:58.326Z,-1.00
2017-12-03T04:08:25.754Z,-0.96
2017-12-03T04:10:53.162Z,-1.06
2017-12-03T04:13:20.726Z,-0.98
2017-12-03T04:15:48.127Z,-0.99
2017-12-03T04:18:15.671Z,-1.01
2017-12-03T04:20:43.058Z,-1.08
2017-12-03T04:23:10.592Z,-1.12
2017-12-03T04:25:37.994Z,-1.00
2017-12-03T04:28:05.650Z,-0.99
2017-12-03T04:30:33.193Z,-0.93
2017-12-03T04:33:00.770Z,-0.98
2017-12-03T04:35:28.269Z,-0.96
2017-12-03T04:37:55.669Z,-1.01
2017-12-03T04:40:23.185Z,-0.98
2017-12-03T04:42:50.668Z,-1.17
2017-12-03T04:45:18.122Z,-1.10
2017-12-03T04:47:45.526Z,-0.99
2017-12-03T04:50:12.977Z,-0.91
2017-12-03T04:52:40.378Z,-0.99
2017-12-03T04:55:07.822Z,-1.01
2017-12-03T04:57:35.484Z,-0.97
2017-12-03T05:00:02.986Z,-1.03
2017-12-03T05:02:30.478Z,-0.94
2017-12-03T05:04:57.927Z,-0.98
2017-12-03T05:07:25.366Z,-1.09
2017-12-03T05:09:52.940Z,-1.02
2017-12-03T05:12:20.406Z,-0.87
2017-12-03T05:14:47.868Z,-1.00
2017-12-03T05:17:15.342Z,-1.05
2017-12-03T05:19:42.808Z,-1.10
2017-12-03T05:22:10.286Z,-0.92
2017-12-03T05:24:37.720Z,-1.03
2017-12-03T05:27:05.162Z,-1.02
2017-12-03T05:29:32.715Z,-1.07
2017-12-03T05:32:00.234Z,-1.02
2017-12-03T05:34:27.679Z,-1.05
2017-12-03T05:36:55.083Z,-1.01
2017-12-03T05:39:22.546Z,-1.20
2017-12-03T05:41:49.978Z,-1.11
2017-12-03T05:44:17.398Z,-1.03
2017-12-03T05:46:44.832Z,-0.98
2017-12-03T05:49:12.288Z,-1.03
2017-12-03T05:51:39.743Z,-0.97
2017-12-03T05:54:07.189Z,-0.94
2017-12-03T05:56:34.718Z,-1.02
2017-12-03T05:59:02.339Z,-1.04
2017-12-03T06:01:29.890Z,-1.12
2017-12-03T06:03:57.289Z,-1.15
2017-12-03T06:06:24.746Z,-1.01
2017-12-03T06:08:52.187Z,-1.08
2017-12-03T06:11:19.690Z,-1.09
2017-12-03T06:13:47.089Z,-1.13
2017-12-03T06:16:14.585Z,-1.10
2017-12-03T06:18:41.995Z,-1.06
2017-12-03T06:21:09.583Z,-1.01
2017-12-03T06:23:37.069Z,-0.95
2017-12-03T06:26:04.600Z,-1.08
2017-12-03T06:28:32.089Z,-1.13
2017-12-03T06:30:59.566Z,-1.05
2017-12-03T06:33:27.050Z,-0.99
2017-12-03T06:35:54.594Z,-0.99
2017-12-03T06:38:22.002Z,-1.05
2017-12-03T06:40:49.519Z,-1.06
2017-12-03T06:43:16.925Z,-1.06
2017-12-03T06:45:44.466Z,-1.06
2017-12-03T06:48:11.871Z,-1.07
2017-12-03T06:50:39.311Z,-1.12
2017-12-03T06:53:06.972Z,-1.20
2017-12-03T06:55:34.451Z,-1.18
2017-12-03T06:58:01.951Z,-1.16
2017-12-03T07:00:29.404Z,-1.10
2017-12-03T07:02:56.862Z,-1.14
2017-12-03T07:05:24.341Z,-1.04
2017-12-03T07:07:51.890Z,-1.18
2017-12-03T07:10:19.402Z,-0.96
2017-12-03T07:12:46.951Z,-1.00
2017-12-03T07:15:14.491Z,-1.05
2017-12-03T07:17:41.962Z,-1.01
2017-12-03T07:20:09.476Z,-0.97
2017-12-03T07:22:37.035Z,-0.89
2017-12-03T07:25:04.535Z,-0.92
2017-12-03T07:27:32.016Z,-0.97
2017-12-03T07:29:59.420Z,-0.93
2017-12-03T07:32:26.874Z,-0.91
2017-12-03T07:34:54.291Z,-0.70
2017-12-03T07:37:21.749Z,-0.68
2017-12-03T07:39:49.262Z,-0.19
2017-12-03T07:42:16.703Z,0.39
2017-12-03T07:44:44.107Z,0.85
2017-12-03T07:47:11.558Z,0.03
2017-12-03T07:49:38.996Z,0.26
2017-12-03T07:52:06.487Z,0.18
2017-12-03T07:54:33.899Z,0.02
2017-12-03T07:57:01.382Z,0.00
2017-12-03T07:59:28.878Z,-0.28
2017-12-03T08:01:56.312Z,-0.11
2017-12-03T08:04:23.705Z,-0.10
2017-12-03T08:06:51.140Z,0.04
2017-12-03T08:09:18.607Z,-0.08
2017-12-03T08:11:46.129Z,-0.01
2017-12-03T08:14:13.590Z,-0.02
2017-12-03T08:16:41.403Z,0.39
2017-12-03T08:19:08.834Z,0.24
2017-12-03T08:21:36.270Z,0.45
2017-12-03T08:24:03.795Z,0.19
2017-12-03T08:26:31.452Z,0.26
2017-12-03T08:28:58.939Z,0.26
2017-12-03T08:31:26.397Z,0.28
2017-12-03T08:33:53.861Z,0.22
2017-12-03T08:36:21.361Z,0.01
2017-12-03T08:38:48.854Z,0.13
2017-12-03T08:41:16.285Z,0.09
2017-12-03T08:43:43.720Z,0.10
2017-12-03T08:46:11.221Z,0.31
2017-12-03T08:48:38.698Z,0.90
2017-12-03T08:51:06.622Z,0.42
2017-12-03T08:53:34.195Z,0.15
2017-12-03T08:56:01.939Z,0.26
2017-12-03T08:58:29.386Z,0.50
2017-12-03T09:00:56.812Z,0.51
2017-12-03T09:03:24.668Z,0.21
2017-12-03T09:05:52.394Z,0.32
2017-12-03T09:08:20.439Z,0.34
2017-12-03T09:10:48.661Z,0.23
2017-12-03T09:13:17.633Z,0.34
2017-12-03T09:15:45.936Z,0.37
2017-12-03T09:18:14.361Z,0.27
2017-12-03T09:20:43.051Z,0.36
2017-12-03T09:23:11.942Z,0.46
2017-12-03T09:25:41.969Z,0.63
2017-12-03T09:28:11.252Z,0.68
2017-12-03T09:30:40.430Z,0.70
2017-12-03T09:33:09.790Z,0.62
2017-12-03T09:35:40.540Z,0.50
2017-12-03T09:38:09.899Z,0.61
2017-12-03T09:40:39.526Z,0.64
2017-12-03T09:43:09.260Z,0.74
2017-12-03T09:45:38.612Z,0.72
2017-12-03T09:48:06.048Z,0.85
2017-12-03T09:50:33.519Z,0.63
2017-12-03T09:53:00.989Z,0.71
2017-12-03T09:55:28.454Z,0.83
2017-12-03T09:57:55.861Z,1.09
2017-12-03T10:00:23.316Z,0.90
2017-12-03T10:02:50.718Z,0.74
2017-12-03T10:05:19.307Z,0.75
2017-12-03T10:07:48.365Z,0.83
2017-12-03T10:10:17.291Z,0.88
2017-12-03T10:12:46.635Z,0.91
2017-12-03T10:15:15.819Z,0.78
2017-12-03T10:17:44.341Z,0.77
2017-12-03T10:20:13.949Z,0.85
2017-12-03T10:22:42.726Z,0.85
2017-12-03T10:25:12.051Z,1.20
2017-12-03T10:27:41.584Z,1.19
2017-12-03T10:30:10.946Z,1.22
2017-12-03T10:32:39.641Z,1.16
2017-12-03T10:35:10.018Z,0.88
2017-12-03T10:40:42.336Z,0.96
2017-12-03T10:43:11.419Z,0.97
2017-12-03T10:45:41.337Z,0.83
2017-12-03T10:48:10.456Z,0.97
2017-12-03T10:50:41.041Z,1.11
2017-12-03T10:53:11.011Z,1.09
2017-12-03T10:55:41.294Z,1.42
2017-12-03T10:58:10.565Z,1.30
2017-12-03T11:00:41.376Z,1.22
2017-12-03T11:03:13.574Z,0.97
2017-12-03T11:05:43.542Z,1.07
2017-12-03T11:08:13.212Z,0.95
2017-12-03T11:10:44.487Z,0.92
2017-12-03T11:13:14.161Z,0.85
2017-12-03T11:15:45.252Z,1.22
2017-12-03T11:18:15.833Z,1.19
2017-12-03T11:20:45.644Z,1.67
2017-12-03T11:23:15.564Z,1.35
2017-12-03T11:25:45.409Z,1.44
2017-12-03T11:28:15.231Z,0.97
2017-12-03T11:30:45.332Z,0.96
2017-12-03T11:33:15.102Z,0.65
2017-12-03T11:35:46.212Z,0.87
2017-12-03T11:38:18.672Z,0.88
2017-12-03T11:40:48.674Z,0.88
2017-12-03T11:43:19.819Z,1.07
2017-12-03T11:45:53.280Z,0.91
2017-12-03T11:48:29.765Z,0.81
2017-12-03T11:51:01.063Z,1.46
2017-12-03T11:53:32.269Z,1.13
2017-12-03T11:55:59.745Z,1.04
2017-12-03T11:58:27.201Z,0.98
2017-12-03T12:00:54.602Z,0.80
2017-12-03T12:03:22.087Z,0.83
2017-12-03T12:05:49.504Z,0.79
2017-12-03T12:08:16.976Z,0.75
2017-12-03T12:10:44.439Z,0.77
2017-12-03T12:13:11.920Z,0.89
2017-12-03T12:15:39.363Z,0.85
2017-12-03T12:18:06.816Z,0.92
2017-12-03T12:20:34.371Z,0.89
2017-12-03T12:23:01.869Z,0.62
2017-12-03T12:25:29.304Z,0.66
2017-12-03T12:27:56.778Z,0.59
2017-12-03T12:30:24.232Z,0.61
2017-12-03T12:32:51.714Z,0.68
2017-12-03T12:35:19.166Z,0.67
2017-12-03T12:37:46.697Z,0.56
2017-12-03T12:40:14.093Z,0.52
2017-12-03T12:42:41.546Z,0.48
2017-12-03T12:45:08.948Z,0.38
2017-12-03T12:47:36.416Z,0.37
2017-12-03T12:50:03.846Z,0.47
2017-12-03T12:52:31.511Z,0.33
2017-12-03T12:54:58.950Z,0.30
2017-12-03T12:57:26.385Z,0.38
2017-12-03T12:59:53.832Z,0.54
2017-12-03T13:02:21.318Z,0.46
2017-12-03T13:04:48.719Z,0.48
2017-12-03T13:07:16.146Z,0.48
2017-12-03T13:09:43.622Z,0.37
2017-12-03T13:12:11.018Z,0.37
2017-12-03T13:14:38.482Z,0.16
2017-12-03T13:17:05.894Z,0.17
2017-12-03T13:19:33.409Z,0.23
2017-12-03T13:22:00.993Z,0.13
2017-12-03T13:24:28.536Z,0.16
2017-12-03T13:26:55.934Z,0.26
2017-12-03T13:29:23.472Z,0.26
2017-12-03T13:31:50.954Z,0.21
2017-12-03T13:34:18.398Z,0.08
2017-12-03T13:36:45.873Z,0.18
2017-12-03T13:39:13.316Z,0.21
2017-12-03T13:41:40.824Z,0.30
2017-12-03T13:44:08.323Z,0.10
2017-12-03T13:46:35.745Z,0.22
2017-12-03T13:49:03.223Z,0.02
2017-12-03T13:51:30.718Z,-0.01
2017-12-03T13:53:58.200Z,-0.08
2017-12-03T13:56:25.616Z,-0.14
2017-12-03T13:58:53.078Z,-0.17
2017-12-03T14:01:20.531Z,-0.33
2017-12-03T14:03:48.004Z,-0.20
2017-12-03T14:06:15.415Z,-0.16
2017-12-03T14:08:42.874Z,-0.28
2017-12-03T14:11:10.354Z,-0.42
2017-12-03T14:13:37.826Z,-0.36
2017-12-03T14:16:05.262Z,-0.45
2017-12-03T14:18:32.798Z,-0.46
2017-12-03T14:21:00.250Z,-0.38
2017-12-03T14:23:27.659Z,-0.19
2017-12-03T14:25:55.283Z,-0.41
2017-12-03T14:28:22.699Z,-0.27
2017-12-03T14:30:50.203Z,-0.24
2017-12-03T14:33:17.618Z,-0.43
2017-12-03T14:35:45.366Z,-0.64
2017-12-03T14:38:12.775Z,-0.52
2017-12-03T14:40:40.289Z,-0.47
2017-12-03T14:43:07.722Z,-0.48
2017-12-03T14:45:35.161Z,-0.41
2017-12-03T14:48:02.621Z,-0.33
2017-12-03T14:50:30.148Z,-0.35
2017-12-03T14:52:57.544Z,-0.52
2017-12-03T14:55:24.987Z,-0.48
2017-12-03T14:57:52.502Z,-0.47
2017-12-03T15:00:19.991Z,-0.32
2017-12-03T15:02:47.439Z,-0.34
2017-12-03T15:05:14.889Z,-0.39
2017-12-03T15:07:42.445Z,-0.49
2017-12-03T15:10:09.930Z,-0.47
2017-12-03T15:12:37.430Z,-0.54
2017-12-03T15:15:04.946Z,-0.40
2017-12-03T15:17:32.397Z,-0.44
2017-12-03T15:19:59.884Z,-0.42
2017-12-03T15:22:27.306Z,-0.57
2017-12-03T15:24:54.768Z,-0.48
2017-12-03T15:27:22.238Z,-0.58
2017-12-03T15:29:49.688Z,-0.59
2017-12-03T15:32:17.170Z,-0.54
2017-12-03T15:34:44.657Z,-0.57
2017-12-03T15:37:12.115Z,-0.50
2017-12-03T15:39:39.566Z,-0.58
2017-12-03T15:42:07.024Z,-0.63
2017-12-03T15:44:34.462Z,-0.70
2017-12-03T15:47:02.019Z,-0.60
2017-12-03T15:49:29.450Z,-0.52
2017-12-03T15:51:56.913Z,-0.70
2017-12-03T15:54:24.348Z,-0.69
2017-12-03T15:56:51.803Z,-0.59
2017-12-03T15:59:19.263Z,-0.66
2017-12-03T16:01:46.716Z,-0.54
2017-12-03T16:04:14.127Z,-0.56
2017-12-03T16:06:41.665Z,-0.67
2017-12-03T16:09:09.135Z,-0.54
2017-12-03T16:11:36.616Z,-0.58
2017-12-03T16:14:04.042Z,-0.60
2017-12-03T16:16:31.682Z,-0.45
2017-12-03T16:18:59.120Z,-0.53
2017-12-03T16:21:26.592Z,-0.57
2017-12-03T16:23:54.052Z,-0.64
2017-12-03T16:26:21.539Z,-0.66
2017-12-03T16:28:49.036Z,-0.72
2017-12-03T16:31:16.570Z,-0.67
2017-12-03T16:33:43.978Z,-0.63
2017-12-03T16:36:11.440Z,-0.71
2017-12-03T16:38:38.845Z,-0.65
2017-12-03T16:41:06.329Z,-0.60
2017-12-03T16:43:33.757Z,-0.61
2017-12-03T16:46:01.393Z,-0.54
2017-12-03T16:48:28.858Z,1.51
2017-12-03T16:50:56.276Z,0.11
2017-12-03T16:53:23.800Z,-0.24
2017-12-03T16:55:51.294Z,-0.19
2017-12-03T16:58:18.882Z,-0.46
2017-12-03T17:00:46.323Z,-0.51
2017-12-03T17:03:13.790Z,-0.53
2017-12-03T17:05:41.191Z,-0.46
2017-12-03T17:08:08.724Z,-0.42
2017-12-03T17:10:36.164Z,-0.42
2017-12-03T17:13:03.671Z,-0.35
2017-12-03T17:15:31.124Z,-0.41
2017-12-03T17:17:58.582Z,-0.45
2017-12-03T17:20:25.999Z,-0.42
2017-12-03T17:22:53.459Z,-0.44
2017-12-03T17:25:20.933Z,-0.43
2017-12-03T17:27:48.400Z,-0.47
2017-12-03T17:30:15.950Z,-0.51
2017-12-03T17:32:43.405Z,-0.56
2017-12-03T17:35:10.825Z,-0.57
2017-12-03T17:37:38.268Z,-0.48
2017-12-03T17:40:05.733Z,-0.42
2017-12-03T17:42:33.350Z,-0.65
2017-12-03T17:45:00.943Z,-0.50
2017-12-03T17:47:28.419Z,-0.49
2017-12-03T17:49:55.921Z,-0.57
2017-12-03T17:52:23.370Z,-0.51
2017-12-03T17:54:50.829Z,1.42
2017-12-03T17:57:18.293Z,0.30
2017-12-03T17:59:45.698Z,0.16
2017-12-03T18:02:13.106Z,0.00
2017-12-03T18:04:41.567Z,-0.16
2017-12-03T18:07:08.974Z,-0.26
2017-12-03T18:09:36.565Z,-0.36
2017-12-03T18:12:04.142Z,-0.39
2017-12-03T18:14:31.678Z,-0.40
2017-12-03T18:16:59.107Z,-0.32
2017-12-03T18:19:26.619Z,-0.40
2017-12-03T18:21:54.058Z,-0.40
2017-12-03T18:24:21.537Z,-0.46
2017-12-03T18:26:48.954Z,-0.42
2017-12-03T18:29:16.461Z,-0.44
2017-12-03T18:31:43.865Z,-0.47
2017-12-03T18:34:11.317Z,-0.45
2017-12-03T18:36:38.734Z,-0.47
2017-12-03T18:39:06.232Z,-0.43
2017-12-03T18:41:33.696Z,-0.48
2017-12-03T18:44:01.428Z,-0.45
2017-12-03T18:46:28.858Z,-0.45
2017-12-03T18:48:56.314Z,-0.50
2017-12-03T18:51:23.712Z,-0.47
2017-12-03T18:53:51.171Z,-0.56
2017-12-03T18:56:18.612Z,-0.52
2017-12-03T18:58:46.214Z,-0.47
2017-12-03T19:01:13.618Z,-0.34
2017-12-03T19:03:41.063Z,-0.41
2017-12-03T19:06:08.470Z,-0.46
2017-12-03T19:08:35.937Z,-0.43
2017-12-03T19:11:03.354Z,-0.34
2017-12-03T19:13:30.819Z,-0.40
2017-12-03T19:15:58.266Z,-0.40
2017-12-03T19:18:25.672Z,-0.35
2017-12-03T19:20:53.110Z,-0.39
2017-12-03T19:23:20.566Z,-0.28
2017-12-03T19:25:48.014Z,-0.35
2017-12-03T19:28:15.448Z,-0.38
2017-12-03T19:30:42.901Z,-0.38
2017-12-03T19:33:10.344Z,-0.41
2017-12-03T19:35:37.824Z,-0.43
2017-12-03T19:38:05.281Z,-0.41
2017-12-03T19:40:32.930Z,-0.40
2017-12-03T19:43:00.543Z,-0.39
2017-12-03T19:45:28.012Z,-0.37
2017-12-03T19:47:55.507Z,-0.28
2017-12-03T19:50:23.033Z,-0.24
2017-12-03T19:52:50.548Z,-0.33
2017-12-03T19:55:18.022Z,-0.37
2017-12-03T19:57:45.524Z,-0.32
2017-12-03T20:00:13.009Z,-0.35
2017-12-03T20:02:40.406Z,-0.34
2017-12-03T20:05:07.908Z,-0.27
2017-12-03T20:07:35.484Z,-0.27
2017-12-03T20:10:03.013Z,-0.21
2017-12-03T20:12:30.536Z,-0.22
2017-12-03T20:14:58.072Z,-0.22
2017-12-03T20:17:25.517Z,-0.37
2017-12-03T20:19:52.932Z,-0.33
2017-12-03T20:22:20.469Z,-0.36
2017-12-03T20:24:47.966Z,-0.34
2017-12-03T20:27:15.484Z,-0.22
2017-12-03T20:29:42.874Z,-0.22
2017-12-03T20:32:10.352Z,-0.12
2017-12-03T20:34:37.899Z,-0.29
2017-12-03T20:37:05.381Z,-0.24
2017-12-03T20:39:32.828Z,-0.30
2017-12-03T20:42:00.337Z,-0.17
2017-12-03T20:44:27.823Z,-0.19
2017-12-03T20:46:55.257Z,-0.11
2017-12-03T20:49:22.791Z,-0.19
2017-12-03T20:51:50.364Z,-0.25
2017-12-03T20:54:17.823Z,-0.29
2017-12-03T20:56:45.286Z,-0.32
2017-12-03T20:59:13.303Z,-0.39
2017-12-03T21:01:40.842Z,-0.39
2017-12-03T21:04:08.255Z,-0.44
2017-12-03T21:06:35.898Z,-0.44
2017-12-03T21:09:03.346Z,-0.41
2017-12-03T21:11:30.986Z,-0.35
2017-12-03T21:13:58.410Z,-0.33
2017-12-03T21:16:25.968Z,-0.35
2017-12-03T21:18:53.385Z,-0.30
2017-12-03T21:21:20.845Z,-0.30
2017-12-03T21:23:48.278Z,-0.24
2017-12-03T21:26:15.792Z,-0.14
2017-12-03T21:28:43.204Z,-0.27
2017-12-03T21:31:10.690Z,-0.27
2017-12-03T21:33:38.155Z,-0.31
2017-12-03T21:36:05.623Z,-0.12
2017-12-03T21:38:33.158Z,-0.23
2017-12-03T21:41:00.616Z,-0.21
2017-12-03T21:43:28.070Z,-0.26
2017-12-03T21:45:55.506Z,-0.27
2017-12-03T21:48:23.073Z,-0.23
2017-12-03T21:50:50.530Z,-0.13
2017-12-03T21:53:18.033Z,-0.17
2017-12-03T21:55:45.486Z,-0.25
2017-12-03T21:58:12.931Z,-0.17
2017-12-03T22:00:40.353Z,-0.26
2017-12-03T22:03:07.925Z,-0.27
2017-12-03T22:05:35.384Z,-0.21
2017-12-03T22:08:02.859Z,-0.10
2017-12-03T22:10:30.349Z,-0.08
2017-12-03T22:12:59.132Z,-0.21
2017-12-03T22:15:26.669Z,-0.05
2017-12-03T22:17:59.436Z,0.02
2017-12-03T22:20:31.921Z,-0.13
2017-12-03T22:23:04.698Z,0.00
2017-12-03T22:25:36.733Z,0.07
2017-12-03T22:28:09.151Z,0.06
2017-12-03T22:30:41.445Z,0.03
2017-12-03T22:33:13.598Z,0.04
2017-12-03T22:35:45.996Z,-0.08
2017-12-03T22:38:18.478Z,0.02
2017-12-03T22:40:51.156Z,-0.03
2017-12-03T22:43:18.592Z,-0.06
2017-12-03T22:45:46.018Z,-0.05
2017-12-03T22:48:13.572Z,-0.02
2017-12-03T22:50:40.987Z,0.03
2017-12-03T22:53:08.438Z,0.01
2017-12-03T22:55:35.850Z,0.04
2017-12-03T22:58:03.369Z,0.07
2017-12-03T23:00:37.601Z,-0.06
2017-12-03T23:03:05.064Z,-0.02
2017-12-03T23:05:32.478Z,-0.02
2017-12-03T23:08:00.102Z,0.01
2017-12-03T23:10:27.645Z,0.02
2017-12-03T23:12:55.185Z,0.13
2017-12-03T23:15:22.646Z,0.19
2017-12-03T23:17:50.063Z,0.23
2017-12-03T23:20:17.506Z,0.15
2017-12-03T23:22:44.944Z,0.15
2017-12-03T23:25:12.394Z,0.07
2017-12-03T23:27:39.809Z,0.19
2017-12-03T23:30:07.262Z,0.18
2017-12-03T23:32:34.671Z,0.13
2017-12-03T23:35:02.188Z,0.25
2017-12-03T23:37:29.669Z,0.30
2017-12-03T23:39:58.024Z,0.30
2017-12-03T23:42:25.620Z,0.26
2017-12-03T23:44:53.194Z,0.17
2017-12-03T23:47:20.611Z,0.25
2017-12-03T23:49:48.059Z,0.19
2017-12-03T23:52:15.622Z,0.16
2017-12-03T23:54:43.171Z,0.28
2017-12-03T23:57:10.563Z,0.25
2017-12-03T23:59:38.102Z,0.22
